Bogota, Colombia
Current Conditions -  °F | °C
As of 3:00 PM on Sunday 21 Dec 2014 (Local Time) from SKBO Reporting Station
Scattered Clouds Scattered Clouds  
Wind Chill: 20°   Ceiling: Unl
Heat Index: 20°   Visibility: 6mi
Dew Point: 12°   Wind: 14mph
Humidity: 60%   Direction: 290°WNW
Pressure: 30.22"   Gusts: NA
Location:  4.63°N, 74.09°W
Report Text: SKBO 212000Z 29012KT 9000 SCT018TCU 20/12 A3022 RMK HZ TCU/NE
Loading
Personal Weather Stations






























Interactive Weather Map New forecast layout! Learn more

10-Day Weather Forecast

Advertisements
Track Severe Weather on mobile